Sleaford, United Kingdom
Current Conditions -  °F | °C
As of 3:55 PM on Thursday 23 Oct 2014 (Local Time) from EGYD Reporting Station
Broken Clouds Broken Clouds  
Wind Chill: 59°   Ceiling: 3000
Heat Index: 59°   Visibility: 6mi
Dew Point: 52°   Wind: 16mph
Humidity: 77%   Direction: 200°SSW
Pressure: 29.94"   Gusts: NA
Location:  53°N, 0.41°W
Report Text: EGYD 231455Z 20014KT 9999 FEW016 BKN030 15/11 Q1014 BLU TEMPO BKN018 WHT
Loading
Personal Weather Stations






























Interactive Weather Map
Tropical Storm Tracking
New forecast layout! Learn more

10-Day Weather Forecast

Advertisements
Track Severe Weather on mobile